sensor_id;sensor_type;location;lat;lon;timestamp;P1;durP1;ratioP1;P2;durP2;ratioP2
62463;SDS011;48512;48.552;9.380;2023-11-19T00:01:42;20.35;;;8.52;;
62463;SDS011;48512;48.552;9.380;2023-11-19T00:04:08;15.15;;;6.63;;
62463;SDS011;48512;48.552;9.380;2023-11-19T00:06:34;14.10;;;5.82;;
62463;SDS011;48512;48.552;9.380;2023-11-19T00:09:00;11.75;;;5.57;;
62463;SDS011;48512;48.552;9.380;2023-11-19T00:11:26;10.93;;;5.38;;
62463;SDS011;48512;48.552;9.380;2023-11-19T00:13:52;11.27;;;5.60;;
62463;SDS011;48512;48.552;9.380;2023-11-19T00:16:19;10.25;;;5.18;;
62463;SDS011;48512;48.552;9.380;2023-11-19T00:18:45;8.93;;;4.53;;
62463;SDS011;48512;48.552;9.380;2023-11-19T00:21:11;7.82;;;3.70;;
62463;SDS011;48512;48.552;9.380;2023-11-19T00:23:37;6.70;;;3.22;;
62463;SDS011;48512;48.552;9.380;2023-11-19T00:26:04;6.53;;;2.92;;
62463;SDS011;48512;48.552;9.380;2023-11-19T00:28:32;3.67;;;2.30;;
62463;SDS011;48512;48.552;9.380;2023-11-19T00:30:59;3.92;;;2.00;;
62463;SDS011;48512;48.552;9.380;2023-11-19T00:33:26;3.58;;;1.90;;
62463;SDS011;48512;48.552;9.380;2023-11-19T00:35:52;4.40;;;2.03;;
62463;SDS011;48512;48.552;9.380;2023-11-19T00:38:18;2.20;;;1.40;;
62463;SDS011;48512;48.552;9.380;2023-11-19T00:40:44;2.55;;;1.40;;
62463;SDS011;48512;48.552;9.380;2023-11-19T00:43:10;1.98;;;1.48;;
62463;SDS011;48512;48.552;9.380;2023-11-19T00:45:36;2.88;;;1.42;;
62463;SDS011;48512;48.552;9.380;2023-11-19T00:48:02;2.85;;;1.70;;
62463;SDS011;48512;48.552;9.380;2023-11-19T00:50:29;1.25;;;1.10;;
62463;SDS011;48512;48.552;9.380;2023-11-19T00:52:56;0.82;;;0.68;;
62463;SDS011;48512;48.552;9.380;2023-11-19T00:55:22;1.05;;;0.90;;
62463;SDS011;48512;48.552;9.380;2023-11-19T00:57:49;1.00;;;0.90;;
62463;SDS011;48512;48.552;9.380;2023-11-19T01:00:15;0.85;;;0.82;;
62463;SDS011;48512;48.552;9.380;2023-11-19T01:02:45;1.55;;;0.90;;
62463;SDS011;48512;48.552;9.380;2023-11-19T01:05:11;1.20;;;0.80;;
62463;SDS011;48512;48.552;9.380;2023-11-19T01:07:40;0.75;;;0.70;;
62463;SDS011;48512;48.552;9.380;2023-11-19T01:10:07;1.55;;;0.60;;
62463;SDS011;48512;48.552;9.380;2023-11-19T01:12:34;2.40;;;1.00;;
62463;SDS011;48512;48.552;9.380;2023-11-19T01:15:00;0.82;;;0.65;;
62463;SDS011;48512;48.552;9.380;2023-11-19T01:17:29;0.50;;;0.50;;
62463;SDS011;48512;48.552;9.380;2023-11-19T01:19:57;1.27;;;0.80;;
62463;SDS011;48512;48.552;9.380;2023-11-19T01:22:23;0.82;;;0.70;;
62463;SDS011;48512;48.552;9.380;2023-11-19T01:24:49;0.82;;;0.60;;
62463;SDS011;48512;48.552;9.380;2023-11-19T01:27:15;1.38;;;0.68;;
62463;SDS011;48512;48.552;9.380;2023-11-19T01:29:41;0.70;;;0.60;;
62463;SDS011;48512;48.552;9.380;2023-11-19T01:32:08;0.60;;;0.60;;
62463;SDS011;48512;48.552;9.380;2023-11-19T01:34:35;1.73;;;0.50;;
62463;SDS011;48512;48.552;9.380;2023-11-19T01:37:01;0.60;;;0.50;;
62463;SDS011;48512;48.552;9.380;2023-11-19T01:39:27;1.95;;;0.43;;
62463;SDS011;48512;48.552;9.380;2023-11-19T01:41:53;0.85;;;0.70;;
62463;SDS011;48512;48.552;9.380;2023-11-19T01:44:20;0.40;;;0.40;;
62463;SDS011;48512;48.552;9.380;2023-11-19T01:46:46;0.65;;;0.50;;
62463;SDS011;48512;48.552;9.380;2023-11-19T01:49:15;0.43;;;0.43;;
62463;SDS011;48512;48.552;9.380;2023-11-19T01:51:43;0.95;;;0.47;;
62463;SDS011;48512;48.552;9.380;2023-11-19T01:54:11;0.50;;;0.50;;
62463;SDS011;48512;48.552;9.380;2023-11-19T01:56:38;0.50;;;0.50;;
62463;SDS011;48512;48.552;9.380;2023-11-19T01:59:06;0.47;;;0.30;;
62463;SDS011;48512;48.552;9.380;2023-11-19T02:01:35;0.77;;;0.40;;
62463;SDS011;48512;48.552;9.380;2023-11-19T02:04:08;0.57;;;0.40;;
62463;SDS011;48512;48.552;9.380;2023-11-19T02:06:36;0.80;;;0.40;;
62463;SDS011;48512;48.552;9.380;2023-11-19T02:09:04;0.45;;;0.40;;
62463;SDS011;48512;48.552;9.380;2023-11-19T02:11:33;0.88;;;0.30;;
62463;SDS011;48512;48.552;9.380;2023-11-19T02:14:00;0.30;;;0.30;;
62463;SDS011;48512;48.552;9.380;2023-11-19T02:16:28;0.43;;;0.35;;
62463;SDS011;48512;48.552;9.380;2023-11-19T02:18:54;0.88;;;0.40;;
62463;SDS011;48512;48.552;9.380;2023-11-19T02:21:20;0.40;;;0.40;;
62463;SDS011;48512;48.552;9.380;2023-11-19T02:23:46;0.40;;;0.40;;
62463;SDS011;48512;48.552;9.380;2023-11-19T02:26:15;0.52;;;0.40;;
62463;SDS011;48512;48.552;9.380;2023-11-19T02:28:51;0.63;;;0.40;;
62463;SDS011;48512;48.552;9.380;2023-11-19T02:31:18;0.20;;;0.20;;
62463;SDS011;48512;48.552;9.380;2023-11-19T02:33:44;0.55;;;0.40;;
62463;SDS011;48512;48.552;9.380;2023-11-19T02:36:10;0.30;;;0.30;;
62463;SDS011;48512;48.552;9.380;2023-11-19T02:38:37;1.10;;;0.30;;
62463;SDS011;48512;48.552;9.380;2023-11-19T02:41:03;0.30;;;0.30;;
62463;SDS011;48512;48.552;9.380;2023-11-19T02:43:33;0.30;;;0.30;;
62463;SDS011;48512;48.552;9.380;2023-11-19T02:46:02;0.40;;;0.40;;
62463;SDS011;48512;48.552;9.380;2023-11-19T02:48:33;0.40;;;0.40;;
62463;SDS011;48512;48.552;9.380;2023-11-19T02:51:03;0.47;;;0.35;;
62463;SDS011;48512;48.552;9.380;2023-11-19T02:53:30;1.70;;;0.50;;
62463;SDS011;48512;48.552;9.380;2023-11-19T02:55:56;0.40;;;0.40;;
62463;SDS011;48512;48.552;9.380;2023-11-19T02:58:35;0.40;;;0.38;;
62463;SDS011;48512;48.552;9.380;2023-11-19T03:01:01;1.60;;;0.50;;
62463;SDS011;48512;48.552;9.380;2023-11-19T03:03:36;0.75;;;0.38;;
62463;SDS011;48512;48.552;9.380;2023-11-19T03:06:06;0.40;;;0.40;;
62463;SDS011;48512;48.552;9.380;2023-11-19T03:08:35;1.08;;;0.50;;
62463;SDS011;48512;48.552;9.380;2023-11-19T03:11:01;0.43;;;0.43;;
62463;SDS011;48512;48.552;9.380;2023-11-19T03:13:27;1.00;;;0.40;;
62463;SDS011;48512;48.552;9.380;2023-11-19T03:15:54;0.50;;;0.50;;
62463;SDS011;48512;48.552;9.380;2023-11-19T03:18:20;1.02;;;0.40;;
62463;SDS011;48512;48.552;9.380;2023-11-19T03:20:46;0.30;;;0.30;;
62463;SDS011;48512;48.552;9.380;2023-11-19T03:23:13;0.40;;;0.40;;
62463;SDS011;48512;48.552;9.380;2023-11-19T03:25:40;0.50;;;0.50;;
62463;SDS011;48512;48.552;9.380;2023-11-19T03:28:06;0.50;;;0.50;;
62463;SDS011;48512;48.552;9.380;2023-11-19T03:30:32;0.47;;;0.40;;
62463;SDS011;48512;48.552;9.380;2023-11-19T03:32:58;0.40;;;0.40;;
62463;SDS011;48512;48.552;9.380;2023-11-19T03:35:26;0.52;;;0.43;;
62463;SDS011;48512;48.552;9.380;2023-11-19T03:37:53;1.70;;;0.40;;
62463;SDS011;48512;48.552;9.380;2023-11-19T03:40:19;0.47;;;0.47;;
62463;SDS011;48512;48.552;9.380;2023-11-19T03:42:46;0.50;;;0.50;;
62463;SDS011;48512;48.552;9.380;2023-11-19T03:45:12;0.90;;;0.40;;
62463;SDS011;48512;48.552;9.380;2023-11-19T03:47:38;0.60;;;0.50;;
62463;SDS011;48512;48.552;9.380;2023-11-19T03:50:05;1.55;;;0.50;;
62463;SDS011;48512;48.552;9.380;2023-11-19T03:52:33;0.55;;;0.50;;
62463;SDS011;48512;48.552;9.380;2023-11-19T03:54:59;0.50;;;0.50;;
62463;SDS011;48512;48.552;9.380;2023-11-19T03:57:27;1.42;;;0.98;;
62463;SDS011;48512;48.552;9.380;2023-11-19T03:59:53;0.60;;;0.60;;
62463;SDS011;48512;48.552;9.380;2023-11-19T04:02:21;2.53;;;1.30;;
62463;SDS011;48512;48.552;9.380;2023-11-19T04:04:47;0.60;;;0.50;;
62463;SDS011;48512;48.552;9.380;2023-11-19T04:07:14;0.50;;;0.50;;
62463;SDS011;48512;48.552;9.380;2023-11-19T04:09:41;0.55;;;0.43;;
62463;SDS011;48512;48.552;9.380;2023-11-19T04:12:07;0.60;;;0.60;;
62463;SDS011;48512;48.552;9.380;2023-11-19T04:14:33;0.73;;;0.60;;
62463;SDS011;48512;48.552;9.380;2023-11-19T04:16:59;1.20;;;0.70;;
62463;SDS011;48512;48.552;9.380;2023-11-19T04:19:25;0.47;;;0.45;;
62463;SDS011;48512;48.552;9.380;2023-11-19T04:21:51;0.38;;;0.38;;
62463;SDS011;48512;48.552;9.380;2023-11-19T04:24:18;0.95;;;0.47;;
62463;SDS011;48512;48.552;9.380;2023-11-19T04:26:45;0.50;;;0.50;;
62463;SDS011;48512;48.552;9.380;2023-11-19T04:29:12;0.68;;;0.40;;
62463;SDS011;48512;48.552;9.380;2023-11-19T04:31:40;0.75;;;0.40;;
62463;SDS011;48512;48.552;9.380;2023-11-19T04:34:07;0.38;;;0.38;;
62463;SDS011;48512;48.552;9.380;2023-11-19T04:36:33;0.40;;;0.40;;
62463;SDS011;48512;48.552;9.380;2023-11-19T04:39:00;0.30;;;0.30;;
62463;SDS011;48512;48.552;9.380;2023-11-19T04:41:26;1.50;;;0.45;;
62463;SDS011;48512;48.552;9.380;2023-11-19T04:43:53;0.70;;;0.30;;
62463;SDS011;48512;48.552;9.380;2023-11-19T04:46:20;0.30;;;0.30;;
62463;SDS011;48512;48.552;9.380;2023-11-19T04:48:46;0.30;;;0.30;;
62463;SDS011;48512;48.552;9.380;2023-11-19T04:51:12;0.30;;;0.30;;
62463;SDS011;48512;48.552;9.380;2023-11-19T04:53:38;0.40;;;0.40;;
62463;SDS011;48512;48.552;9.380;2023-11-19T04:56:08;0.30;;;0.30;;
62463;SDS011;48512;48.552;9.380;2023-11-19T04:58:35;0.20;;;0.20;;
62463;SDS011;48512;48.552;9.380;2023-11-19T05:01:01;0.43;;;0.30;;
62463;SDS011;48512;48.552;9.380;2023-11-19T05:03:29;0.20;;;0.20;;
62463;SDS011;48512;48.552;9.380;2023-11-19T05:05:55;0.20;;;0.20;;
62463;SDS011;48512;48.552;9.380;2023-11-19T05:08:21;0.20;;;0.20;;
62463;SDS011;48512;48.552;9.380;2023-11-19T05:10:47;0.45;;;0.30;;
62463;SDS011;48512;48.552;9.380;2023-11-19T05:13:13;0.32;;;0.30;;
62463;SDS011;48512;48.552;9.380;2023-11-19T05:15:40;0.20;;;0.20;;
62463;SDS011;48512;48.552;9.380;2023-11-19T05:18:06;0.30;;;0.30;;
62463;SDS011;48512;48.552;9.380;2023-11-19T05:20:32;0.30;;;0.30;;
62463;SDS011;48512;48.552;9.380;2023-11-19T05:22:58;0.60;;;0.47;;
62463;SDS011;48512;48.552;9.380;2023-11-19T05:25:26;0.30;;;0.30;;
62463;SDS011;48512;48.552;9.380;2023-11-19T05:27:53;1.33;;;0.30;;
62463;SDS011;48512;48.552;9.380;2023-11-19T05:30:19;0.30;;;0.30;;
62463;SDS011;48512;48.552;9.380;2023-11-19T05:32:45;0.30;;;0.30;;
62463;SDS011;48512;48.552;9.380;2023-11-19T05:35:11;0.52;;;0.30;;
62463;SDS011;48512;48.552;9.380;2023-11-19T05:37:38;0.60;;;0.40;;
62463;SDS011;48512;48.552;9.380;2023-11-19T05:40:04;0.30;;;0.30;;
62463;SDS011;48512;48.552;9.380;2023-11-19T05:42:37;1.50;;;0.22;;
62463;SDS011;48512;48.552;9.380;2023-11-19T05:45:03;0.20;;;0.20;;
62463;SDS011;48512;48.552;9.380;2023-11-19T05:47:30;0.30;;;0.30;;
62463;SDS011;48512;48.552;9.380;2023-11-19T05:49:56;0.55;;;0.30;;
62463;SDS011;48512;48.552;9.380;2023-11-19T05:52:22;1.50;;;0.35;;
62463;SDS011;48512;48.552;9.380;2023-11-19T05:54:49;0.55;;;0.50;;
62463;SDS011;48512;48.552;9.380;2023-11-19T05:57:17;1.75;;;0.30;;
62463;SDS011;48512;48.552;9.380;2023-11-19T05:59:49;0.40;;;0.40;;
62463;SDS011;48512;48.552;9.380;2023-11-19T06:02:15;0.93;;;0.30;;
62463;SDS011;48512;48.552;9.380;2023-11-19T06:04:42;0.52;;;0.30;;
62463;SDS011;48512;48.552;9.380;2023-11-19T06:07:10;0.70;;;0.30;;
62463;SDS011;48512;48.552;9.380;2023-11-19T06:09:36;0.30;;;0.30;;
62463;SDS011;48512;48.552;9.380;2023-11-19T06:12:02;0.20;;;0.20;;
62463;SDS011;48512;48.552;9.380;2023-11-19T06:14:29;0.60;;;0.40;;
62463;SDS011;48512;48.552;9.380;2023-11-19T06:16:55;0.55;;;0.40;;
62463;SDS011;48512;48.552;9.380;2023-11-19T06:19:21;1.48;;;0.77;;
62463;SDS011;48512;48.552;9.380;2023-11-19T06:21:47;0.38;;;0.32;;
62463;SDS011;48512;48.552;9.380;2023-11-19T06:24:13;2.30;;;0.60;;
62463;SDS011;48512;48.552;9.380;2023-11-19T06:26:39;0.90;;;0.43;;
62463;SDS011;48512;48.552;9.380;2023-11-19T06:29:05;0.93;;;0.47;;
62463;SDS011;48512;48.552;9.380;2023-11-19T06:31:31;0.52;;;0.30;;
62463;SDS011;48512;48.552;9.380;2023-11-19T06:33:57;1.90;;;0.30;;
62463;SDS011;48512;48.552;9.380;2023-11-19T06:36:24;1.65;;;0.50;;
62463;SDS011;48512;48.552;9.380;2023-11-19T06:38:50;1.33;;;0.40;;
62463;SDS011;48512;48.552;9.380;2023-11-19T06:41:16;0.30;;;0.30;;
62463;SDS011;48512;48.552;9.380;2023-11-19T06:43:42;1.33;;;0.40;;
62463;SDS011;48512;48.552;9.380;2023-11-19T06:46:15;0.30;;;0.30;;
62463;SDS011;48512;48.552;9.380;2023-11-19T06:48:42;0.73;;;0.50;;
62463;SDS011;48512;48.552;9.380;2023-11-19T06:51:10;0.73;;;0.50;;
62463;SDS011;48512;48.552;9.380;2023-11-19T06:53:36;1.20;;;0.65;;
62463;SDS011;48512;48.552;9.380;2023-11-19T06:56:03;1.55;;;0.50;;
62463;SDS011;48512;48.552;9.380;2023-11-19T06:58:35;0.30;;;0.30;;
62463;SDS011;48512;48.552;9.380;2023-11-19T07:03:27;1.25;;;0.60;;
62463;SDS011;48512;48.552;9.380;2023-11-19T07:05:53;0.40;;;0.40;;
62463;SDS011;48512;48.552;9.380;2023-11-19T07:08:21;0.85;;;0.40;;
62463;SDS011;48512;48.552;9.380;2023-11-19T07:10:47;3.00;;;0.93;;
62463;SDS011;48512;48.552;9.380;2023-11-19T07:13:14;1.17;;;0.50;;
62463;SDS011;48512;48.552;9.380;2023-11-19T07:15:40;0.30;;;0.30;;
62463;SDS011;48512;48.552;9.380;2023-11-19T07:18:06;0.50;;;0.50;;
62463;SDS011;48512;48.552;9.380;2023-11-19T07:20:32;0.40;;;0.30;;
62463;SDS011;48512;48.552;9.380;2023-11-19T07:22:59;0.30;;;0.30;;
62463;SDS011;48512;48.552;9.380;2023-11-19T07:25:25;1.48;;;0.90;;
62463;SDS011;48512;48.552;9.380;2023-11-19T07:27:52;0.30;;;0.30;;
62463;SDS011;48512;48.552;9.380;2023-11-19T07:30:18;0.30;;;0.30;;
62463;SDS011;48512;48.552;9.380;2023-11-19T07:32:44;0.73;;;0.47;;
62463;SDS011;48512;48.552;9.380;2023-11-19T07:35:11;0.73;;;0.45;;
62463;SDS011;48512;48.552;9.380;2023-11-19T07:37:37;3.00;;;0.43;;
62463;SDS011;48512;48.552;9.380;2023-11-19T07:40:03;1.58;;;0.60;;
62463;SDS011;48512;48.552;9.380;2023-11-19T07:42:30;1.05;;;0.40;;
62463;SDS011;48512;48.552;9.380;2023-11-19T07:44:57;0.95;;;0.50;;
62463;SDS011;48512;48.552;9.380;2023-11-19T07:47:23;0.40;;;0.40;;
62463;SDS011;48512;48.552;9.380;2023-11-19T07:49:50;0.30;;;0.30;;
62463;SDS011;48512;48.552;9.380;2023-11-19T07:52:16;0.52;;;0.32;;
62463;SDS011;48512;48.552;9.380;2023-11-19T07:54:42;1.02;;;0.70;;
62463;SDS011;48512;48.552;9.380;2023-11-19T07:57:09;0.40;;;0.40;;
62463;SDS011;48512;48.552;9.380;2023-11-19T07:59:35;1.35;;;0.63;;
62463;SDS011;48512;48.552;9.380;2023-11-19T08:02:02;0.32;;;0.30;;
62463;SDS011;48512;48.552;9.380;2023-11-19T08:04:29;1.88;;;1.40;;
62463;SDS011;48512;48.552;9.380;2023-11-19T08:06:55;0.75;;;0.50;;
62463;SDS011;48512;48.552;9.380;2023-11-19T08:09:22;0.90;;;0.47;;
62463;SDS011;48512;48.552;9.380;2023-11-19T08:11:49;1.98;;;0.90;;
62463;SDS011;48512;48.552;9.380;2023-11-19T08:14:15;0.60;;;0.40;;
62463;SDS011;48512;48.552;9.380;2023-11-19T08:16:41;0.60;;;0.50;;
62463;SDS011;48512;48.552;9.380;2023-11-19T08:19:07;0.50;;;0.50;;
62463;SDS011;48512;48.552;9.380;2023-11-19T08:21:34;0.50;;;0.40;;
62463;SDS011;48512;48.552;9.380;2023-11-19T08:24:00;0.52;;;0.38;;
62463;SDS011;48512;48.552;9.380;2023-11-19T08:26:26;0.45;;;0.45;;
62463;SDS011;48512;48.552;9.380;2023-11-19T08:28:52;1.05;;;0.68;;
62463;SDS011;48512;48.552;9.380;2023-11-19T08:31:18;3.45;;;1.15;;
62463;SDS011;48512;48.552;9.380;2023-11-19T08:33:44;2.17;;;0.40;;
62463;SDS011;48512;48.552;9.380;2023-11-19T08:36:17;0.68;;;0.65;;
62463;SDS011;48512;48.552;9.380;2023-11-19T08:38:43;1.77;;;0.82;;
62463;SDS011;48512;48.552;9.380;2023-11-19T08:41:09;1.20;;;0.60;;
62463;SDS011;48512;48.552;9.380;2023-11-19T08:43:35;0.60;;;0.50;;
62463;SDS011;48512;48.552;9.380;2023-11-19T08:46:02;0.57;;;0.50;;
62463;SDS011;48512;48.552;9.380;2023-11-19T08:48:29;3.72;;;1.83;;
62463;SDS011;48512;48.552;9.380;2023-11-19T08:50:56;1.60;;;0.80;;
62463;SDS011;48512;48.552;9.380;2023-11-19T08:53:22;1.40;;;0.50;;
62463;SDS011;48512;48.552;9.380;2023-11-19T08:55:48;0.90;;;0.60;;
62463;SDS011;48512;48.552;9.380;2023-11-19T08:58:15;0.77;;;0.60;;
62463;SDS011;48512;48.552;9.380;2023-11-19T09:00:41;0.98;;;0.52;;
62463;SDS011;48512;48.552;9.380;2023-11-19T09:03:07;0.57;;;0.40;;
62463;SDS011;48512;48.552;9.380;2023-11-19T09:05:35;1.33;;;0.63;;
62463;SDS011;48512;48.552;9.380;2023-11-19T09:08:01;2.92;;;1.33;;
62463;SDS011;48512;48.552;9.380;2023-11-19T09:10:27;1.65;;;0.80;;
62463;SDS011;48512;48.552;9.380;2023-11-19T09:12:55;0.80;;;0.50;;
62463;SDS011;48512;48.552;9.380;2023-11-19T09:15:21;4.35;;;1.50;;
62463;SDS011;48512;48.552;9.380;2023-11-19T09:17:47;2.22;;;0.50;;
62463;SDS011;48512;48.552;9.380;2023-11-19T09:20:13;1.67;;;0.60;;
62463;SDS011;48512;48.552;9.380;2023-11-19T09:22:41;2.35;;;0.70;;
62463;SDS011;48512;48.552;9.380;2023-11-19T09:25:07;4.63;;;0.50;;
62463;SDS011;48512;48.552;9.380;2023-11-19T09:27:33;1.77;;;0.70;;
62463;SDS011;48512;48.552;9.380;2023-11-19T09:30:00;1.52;;;0.80;;
62463;SDS011;48512;48.552;9.380;2023-11-19T09:32:26;1.35;;;0.80;;
62463;SDS011;48512;48.552;9.380;2023-11-19T09:34:52;1.55;;;0.68;;
62463;SDS011;48512;48.552;9.380;2023-11-19T09:37:18;1.02;;;0.50;;
62463;SDS011;48512;48.552;9.380;2023-11-19T09:39:44;1.27;;;1.05;;
62463;SDS011;48512;48.552;9.380;2023-11-19T09:42:10;1.98;;;1.10;;
62463;SDS011;48512;48.552;9.380;2023-11-19T09:44:37;1.75;;;0.70;;
62463;SDS011;48512;48.552;9.380;2023-11-19T09:47:05;0.70;;;0.50;;
62463;SDS011;48512;48.552;9.380;2023-11-19T09:49:32;1.35;;;0.73;;
62463;SDS011;48512;48.552;9.380;2023-11-19T09:51:59;2.25;;;1.27;;
62463;SDS011;48512;48.552;9.380;2023-11-19T09:54:25;3.25;;;1.67;;
62463;SDS011;48512;48.552;9.380;2023-11-19T09:56:51;1.13;;;0.60;;
62463;SDS011;48512;48.552;9.380;2023-11-19T09:59:17;0.60;;;0.50;;
62463;SDS011;48512;48.552;9.380;2023-11-19T10:01:45;1.77;;;0.40;;
62463;SDS011;48512;48.552;9.380;2023-11-19T10:04:11;0.57;;;0.50;;
62463;SDS011;48512;48.552;9.380;2023-11-19T10:09:07;1.25;;;0.52;;
62463;SDS011;48512;48.552;9.380;2023-11-19T10:11:33;0.50;;;0.50;;
62463;SDS011;48512;48.552;9.380;2023-11-19T10:13:59;5.25;;;0.57;;
62463;SDS011;48512;48.552;9.380;2023-11-19T10:16:29;0.60;;;0.50;;
62463;SDS011;48512;48.552;9.380;2023-11-19T10:18:57;0.32;;;0.30;;
62463;SDS011;48512;48.552;9.380;2023-11-19T10:21:23;0.40;;;0.40;;
62463;SDS011;48512;48.552;9.380;2023-11-19T10:23:54;0.93;;;0.45;;
62463;SDS011;48512;48.552;9.380;2023-11-19T10:26:23;1.38;;;0.50;;
62463;SDS011;48512;48.552;9.380;2023-11-19T10:28:49;0.80;;;0.55;;
62463;SDS011;48512;48.552;9.380;2023-11-19T10:31:16;0.30;;;0.30;;
62463;SDS011;48512;48.552;9.380;2023-11-19T10:33:43;2.83;;;0.80;;
62463;SDS011;48512;48.552;9.380;2023-11-19T10:36:11;0.47;;;0.40;;
62463;SDS011;48512;48.552;9.380;2023-11-19T10:38:38;0.35;;;0.35;;
62463;SDS011;48512;48.552;9.380;2023-11-19T10:41:04;1.13;;;0.80;;
62463;SDS011;48512;48.552;9.380;2023-11-19T10:43:43;0.80;;;0.77;;
62463;SDS011;48512;48.552;9.380;2023-11-19T10:46:13;0.40;;;0.38;;
62463;SDS011;48512;48.552;9.380;2023-11-19T10:48:40;1.17;;;0.80;;
62463;SDS011;48512;48.552;9.380;2023-11-19T10:51:06;1.77;;;0.93;;
62463;SDS011;48512;48.552;9.380;2023-11-19T10:53:35;1.70;;;1.13;;
62463;SDS011;48512;48.552;9.380;2023-11-19T10:56:10;3.22;;;1.60;;
62463;SDS011;48512;48.552;9.380;2023-11-19T10:58:37;2.95;;;1.50;;
62463;SDS011;48512;48.552;9.380;2023-11-19T11:01:13;1.63;;;1.10;;
62463;SDS011;48512;48.552;9.380;2023-11-19T11:03:44;0.50;;;0.50;;
62463;SDS011;48512;48.552;9.380;2023-11-19T11:06:11;2.15;;;0.90;;
62463;SDS011;48512;48.552;9.380;2023-11-19T11:08:39;0.50;;;0.50;;
62463;SDS011;48512;48.552;9.380;2023-11-19T11:11:05;1.30;;;0.70;;
62463;SDS011;48512;48.552;9.380;2023-11-19T11:13:33;1.85;;;0.80;;
62463;SDS011;48512;48.552;9.380;2023-11-19T11:16:01;1.17;;;0.80;;
62463;SDS011;48512;48.552;9.380;2023-11-19T11:18:27;0.90;;;0.60;;
62463;SDS011;48512;48.552;9.380;2023-11-19T11:20:55;0.57;;;0.50;;
62463;SDS011;48512;48.552;9.380;2023-11-19T11:23:47;0.63;;;0.60;;
62463;SDS011;48512;48.552;9.380;2023-11-19T11:26:56;2.03;;;0.90;;
62463;SDS011;48512;48.552;9.380;2023-11-19T11:29:44;2.63;;;0.90;;
62463;SDS011;48512;48.552;9.380;2023-11-19T11:37:46;1.00;;;0.43;;
62463;SDS011;48512;48.552;9.380;2023-11-19T11:40:15;0.98;;;0.60;;
62463;SDS011;48512;48.552;9.380;2023-11-19T11:42:44;1.13;;;0.60;;
62463;SDS011;48512;48.552;9.380;2023-11-19T11:45:12;1.67;;;0.85;;
62463;SDS011;48512;48.552;9.380;2023-11-19T11:50:09;1.42;;;0.70;;
62463;SDS011;48512;48.552;9.380;2023-11-19T11:55:24;1.10;;;0.93;;
62463;SDS011;48512;48.552;9.380;2023-11-19T11:57:53;1.77;;;0.40;;
62463;SDS011;48512;48.552;9.380;2023-11-19T12:00:29;0.60;;;0.50;;
62463;SDS011;48512;48.552;9.380;2023-11-19T12:03:00;1.70;;;0.85;;
62463;SDS011;48512;48.552;9.380;2023-11-19T12:05:27;1.25;;;0.82;;
62463;SDS011;48512;48.552;9.380;2023-11-19T12:08:01;1.05;;;0.60;;
62463;SDS011;48512;48.552;9.380;2023-11-19T12:10:31;1.10;;;0.60;;
62463;SDS011;48512;48.552;9.380;2023-11-19T12:13:11;3.10;;;0.55;;
62463;SDS011;48512;48.552;9.380;2023-11-19T12:18:27;0.77;;;0.50;;
62463;SDS011;48512;48.552;9.380;2023-11-19T12:20:55;0.93;;;0.50;;
62463;SDS011;48512;48.552;9.380;2023-11-19T12:23:21;0.80;;;0.50;;
62463;SDS011;48512;48.552;9.380;2023-11-19T12:25:48;1.88;;;0.90;;
62463;SDS011;48512;48.552;9.380;2023-11-19T12:28:14;0.30;;;0.30;;
62463;SDS011;48512;48.552;9.380;2023-11-19T12:30:45;1.25;;;1.15;;
62463;SDS011;48512;48.552;9.380;2023-11-19T12:33:12;0.30;;;0.30;;
62463;SDS011;48512;48.552;9.380;2023-11-19T12:35:39;0.77;;;0.45;;
62463;SDS011;48512;48.552;9.380;2023-11-19T12:38:06;0.40;;;0.35;;
62463;SDS011;48512;48.552;9.380;2023-11-19T12:40:32;1.17;;;0.60;;
62463;SDS011;48512;48.552;9.380;2023-11-19T12:42:59;1.60;;;0.68;;
62463;SDS011;48512;48.552;9.380;2023-11-19T12:45:38;1.17;;;0.40;;
62463;SDS011;48512;48.552;9.380;2023-11-19T12:48:05;0.90;;;0.40;;
62463;SDS011;48512;48.552;9.380;2023-11-19T12:53:18;0.80;;;0.63;;
62463;SDS011;48512;48.552;9.380;2023-11-19T12:55:45;0.93;;;0.50;;
62463;SDS011;48512;48.552;9.380;2023-11-19T12:58:27;0.65;;;0.40;;
62463;SDS011;48512;48.552;9.380;2023-11-19T13:00:58;0.50;;;0.50;;
62463;SDS011;48512;48.552;9.380;2023-11-19T13:03:29;2.55;;;0.60;;
62463;SDS011;48512;48.552;9.380;2023-11-19T13:06:06;1.67;;;0.70;;
62463;SDS011;48512;48.552;9.380;2023-11-19T13:08:40;1.25;;;0.50;;
62463;SDS011;48512;48.552;9.380;2023-11-19T13:11:32;2.30;;;0.45;;
62463;SDS011;48512;48.552;9.380;2023-11-19T13:14:00;1.40;;;0.40;;
62463;SDS011;48512;48.552;9.380;2023-11-19T13:16:30;0.60;;;0.40;;
62463;SDS011;48512;48.552;9.380;2023-11-19T13:18:56;1.17;;;0.40;;
62463;SDS011;48512;48.552;9.380;2023-11-19T13:21:23;2.90;;;1.20;;
62463;SDS011;48512;48.552;9.380;2023-11-19T13:23:50;0.80;;;0.60;;
62463;SDS011;48512;48.552;9.380;2023-11-19T13:26:16;1.95;;;0.35;;
62463;SDS011;48512;48.552;9.380;2023-11-19T13:28:42;0.43;;;0.30;;
62463;SDS011;48512;48.552;9.380;2023-11-19T13:31:08;3.00;;;0.60;;
62463;SDS011;48512;48.552;9.380;2023-11-19T13:33:36;0.77;;;0.50;;
62463;SDS011;48512;48.552;9.380;2023-11-19T13:36:03;1.30;;;0.50;;
62463;SDS011;48512;48.552;9.380;2023-11-19T13:38:32;1.80;;;0.60;;
62463;SDS011;48512;48.552;9.380;2023-11-19T13:40:59;1.38;;;0.63;;
62463;SDS011;48512;48.552;9.380;2023-11-19T13:43:25;1.95;;;0.60;;
62463;SDS011;48512;48.552;9.380;2023-11-19T13:45:54;1.33;;;0.57;;
62463;SDS011;48512;48.552;9.380;2023-11-19T13:48:21;0.82;;;0.50;;
62463;SDS011;48512;48.552;9.380;2023-11-19T13:50:47;1.42;;;0.73;;
62463;SDS011;48512;48.552;9.380;2023-11-19T13:53:14;0.88;;;0.57;;
62463;SDS011;48512;48.552;9.380;2023-11-19T13:55:41;1.40;;;0.68;;
62463;SDS011;48512;48.552;9.380;2023-11-19T13:58:08;2.47;;;0.90;;
62463;SDS011;48512;48.552;9.380;2023-11-19T14:00:37;1.48;;;0.82;;
62463;SDS011;48512;48.552;9.380;2023-11-19T14:03:03;2.08;;;0.75;;
62463;SDS011;48512;48.552;9.380;2023-11-19T14:05:29;2.47;;;0.70;;
62463;SDS011;48512;48.552;9.380;2023-11-19T14:07:55;2.17;;;0.98;;
62463;SDS011;48512;48.552;9.380;2023-11-19T14:10:22;4.55;;;1.30;;
62463;SDS011;48512;48.552;9.380;2023-11-19T14:12:49;2.65;;;1.10;;
62463;SDS011;48512;48.552;9.380;2023-11-19T14:15:18;1.42;;;0.70;;
62463;SDS011;48512;48.552;9.380;2023-11-19T14:17:44;2.97;;;1.20;;
62463;SDS011;48512;48.552;9.380;2023-11-19T14:20:10;1.63;;;1.00;;
62463;SDS011;48512;48.552;9.380;2023-11-19T14:22:41;3.22;;;0.60;;
62463;SDS011;48512;48.552;9.380;2023-11-19T14:25:08;2.78;;;1.40;;
62463;SDS011;48512;48.552;9.380;2023-11-19T14:27:36;3.90;;;2.10;;
62463;SDS011;48512;48.552;9.380;2023-11-19T14:30:06;3.85;;;1.90;;
62463;SDS011;48512;48.552;9.380;2023-11-19T14:32:37;5.28;;;2.05;;
62463;SDS011;48512;48.552;9.380;2023-11-19T14:35:05;1.83;;;0.80;;
62463;SDS011;48512;48.552;9.380;2023-11-19T14:37:32;3.42;;;1.48;;
62463;SDS011;48512;48.552;9.380;2023-11-19T14:39:58;2.22;;;1.08;;
62463;SDS011;48512;48.552;9.380;2023-11-19T14:42:25;2.65;;;1.10;;
62463;SDS011;48512;48.552;9.380;2023-11-19T14:44:52;3.42;;;1.45;;
62463;SDS011;48512;48.552;9.380;2023-11-19T14:47:21;2.92;;;1.10;;
62463;SDS011;48512;48.552;9.380;2023-11-19T14:49:48;3.45;;;1.10;;
62463;SDS011;48512;48.552;9.380;2023-11-19T14:52:14;6.10;;;1.85;;
62463;SDS011;48512;48.552;9.380;2023-11-19T14:54:40;3.42;;;1.60;;
62463;SDS011;48512;48.552;9.380;2023-11-19T14:57:06;4.25;;;2.10;;
62463;SDS011;48512;48.552;9.380;2023-11-19T14:59:34;5.75;;;2.60;;
62463;SDS011;48512;48.552;9.380;2023-11-19T15:02:00;3.33;;;1.23;;
62463;SDS011;48512;48.552;9.380;2023-11-19T15:04:27;2.78;;;1.58;;
62463;SDS011;48512;48.552;9.380;2023-11-19T15:06:53;10.45;;;3.90;;
62463;SDS011;48512;48.552;9.380;2023-11-19T15:09:19;7.18;;;2.95;;
62463;SDS011;48512;48.552;9.380;2023-11-19T15:11:47;6.45;;;2.28;;